sensor_id;sensor_type;location;lat;lon;timestamp;pressure;altitude;pressure_sealevel;temperature;humidity
71573;BME280;59408;51.032;9.410;2023-03-16T00:02:10;99530.56;;;-4.13;100.00
71573;BME280;59408;51.032;9.410;2023-03-16T00:04:39;99528.13;;;-4.15;100.00
71573;BME280;59408;51.032;9.410;2023-03-16T00:07:07;99524.88;;;-4.17;100.00
71573;BME280;59408;51.032;9.410;2023-03-16T00:09:34;99529.66;;;-4.19;100.00
71573;BME280;59408;51.032;9.410;2023-03-16T00:12:02;99531.72;;;-4.21;100.00
71573;BME280;59408;51.032;9.410;2023-03-16T00:14:30;99536.69;;;-4.24;100.00
71573;BME280;59408;51.032;9.410;2023-03-16T00:16:57;99536.09;;;-4.26;100.00
71573;BME280;59408;51.032;9.410;2023-03-16T00:19:24;99523.25;;;-4.29;100.00
71573;BME280;59408;51.032;9.410;2023-03-16T00:21:52;99528.00;;;-4.31;100.00
71573;BME280;59408;51.032;9.410;2023-03-16T00:24:18;99529.84;;;-4.32;100.00
71573;BME280;59408;51.032;9.410;2023-03-16T00:26:46;99531.34;;;-4.36;100.00
71573;BME280;59408;51.032;9.410;2023-03-16T00:29:13;99532.28;;;-4.30;100.00
71573;BME280;59408;51.032;9.410;2023-03-16T00:31:40;99533.09;;;-4.30;100.00
71573;BME280;59408;51.032;9.410;2023-03-16T00:34:07;99522.91;;;-4.33;100.00
71573;BME280;59408;51.032;9.410;2023-03-16T00:36:33;99535.63;;;-4.35;100.00
71573;BME280;59408;51.032;9.410;2023-03-16T00:39:02;99526.25;;;-4.37;100.00
71573;BME280;59408;51.032;9.410;2023-03-16T00:41:28;99524.41;;;-4.37;100.00
71573;BME280;59408;51.032;9.410;2023-03-16T00:43:55;99534.81;;;-4.35;100.00
71573;BME280;59408;51.032;9.410;2023-03-16T00:46:22;99531.00;;;-4.40;100.00
71573;BME280;59408;51.032;9.410;2023-03-16T00:48:49;99532.25;;;-4.42;100.00
71573;BME280;59408;51.032;9.410;2023-03-16T00:51:16;99525.53;;;-4.45;100.00
71573;BME280;59408;51.032;9.410;2023-03-16T00:53:44;99530.03;;;-4.45;100.00
71573;BME280;59408;51.032;9.410;2023-03-16T00:56:13;99531.34;;;-4.48;100.00
71573;BME280;59408;51.032;9.410;2023-03-16T00:58:41;99526.47;;;-4.51;100.00
71573;BME280;59408;51.032;9.410;2023-03-16T01:01:10;99520.31;;;-4.51;100.00
71573;BME280;59408;51.032;9.410;2023-03-16T01:03:37;99510.50;;;-4.51;100.00
71573;BME280;59408;51.032;9.410;2023-03-16T01:06:04;99517.66;;;-4.51;100.00
71573;BME280;59408;51.032;9.410;2023-03-16T01:08:32;99524.25;;;-4.54;100.00
71573;BME280;59408;51.032;9.410;2023-03-16T01:11:01;99521.38;;;-4.52;100.00
71573;BME280;59408;51.032;9.410;2023-03-16T01:13:30;99516.53;;;-4.55;100.00
71573;BME280;59408;51.032;9.410;2023-03-16T01:15:56;99523.44;;;-4.54;100.00
71573;BME280;59408;51.032;9.410;2023-03-16T01:18:23;99517.66;;;-4.51;100.00
71573;BME280;59408;51.032;9.410;2023-03-16T01:20:50;99515.44;;;-4.54;100.00
71573;BME280;59408;51.032;9.410;2023-03-16T01:23:17;99513.38;;;-4.52;100.00
71573;BME280;59408;51.032;9.410;2023-03-16T01:25:44;99513.03;;;-4.56;100.00
71573;BME280;59408;51.032;9.410;2023-03-16T01:28:10;99504.91;;;-4.61;100.00
71573;BME280;59408;51.032;9.410;2023-03-16T01:30:38;99509.66;;;-4.63;100.00
71573;BME280;59408;51.032;9.410;2023-03-16T01:33:05;99505.63;;;-4.65;100.00
71573;BME280;59408;51.032;9.410;2023-03-16T01:35:31;99506.06;;;-4.68;100.00
71573;BME280;59408;51.032;9.410;2023-03-16T01:37:58;99500.38;;;-4.72;100.00
71573;BME280;59408;51.032;9.410;2023-03-16T01:40:25;99500.84;;;-4.75;100.00
71573;BME280;59408;51.032;9.410;2023-03-16T01:43:00;99497.59;;;-4.77;100.00
71573;BME280;59408;51.032;9.410;2023-03-16T01:46:10;99489.84;;;-4.79;100.00
71573;BME280;59408;51.032;9.410;2023-03-16T01:48:42;99492.72;;;-4.80;100.00
71573;BME280;59408;51.032;9.410;2023-03-16T01:51:15;99480.47;;;-4.81;100.00
71573;BME280;59408;51.032;9.410;2023-03-16T01:53:44;99480.72;;;-4.83;100.00
71573;BME280;59408;51.032;9.410;2023-03-16T01:56:15;99477.47;;;-4.85;100.00
71573;BME280;59408;51.032;9.410;2023-03-16T01:58:44;99470.50;;;-4.86;100.00
71573;BME280;59408;51.032;9.410;2023-03-16T02:01:13;99479.75;;;-4.88;100.00
71573;BME280;59408;51.032;9.410;2023-03-16T02:03:41;99478.72;;;-4.87;100.00
71573;BME280;59408;51.032;9.410;2023-03-16T02:06:11;99483.81;;;-4.86;100.00
71573;BME280;59408;51.032;9.410;2023-03-16T02:08:39;99495.59;;;-4.82;100.00
71573;BME280;59408;51.032;9.410;2023-03-16T02:11:08;99490.06;;;-4.80;100.00
71573;BME280;59408;51.032;9.410;2023-03-16T02:13:35;99482.44;;;-4.77;100.00
71573;BME280;59408;51.032;9.410;2023-03-16T02:16:03;99485.34;;;-4.78;100.00
71573;BME280;59408;51.032;9.410;2023-03-16T02:18:32;99478.38;;;-4.79;100.00
71573;BME280;59408;51.032;9.410;2023-03-16T02:21:04;99487.41;;;-4.80;100.00
71573;BME280;59408;51.032;9.410;2023-03-16T02:23:33;99484.06;;;-4.75;100.00
71573;BME280;59408;51.032;9.410;2023-03-16T02:26:02;99486.50;;;-4.74;100.00
71573;BME280;59408;51.032;9.410;2023-03-16T02:28:35;99486.63;;;-4.69;100.00
71573;BME280;59408;51.032;9.410;2023-03-16T02:31:05;99484.56;;;-4.67;100.00
71573;BME280;59408;51.032;9.410;2023-03-16T02:33:32;99484.06;;;-4.64;100.00
71573;BME280;59408;51.032;9.410;2023-03-16T02:35:59;99472.06;;;-4.66;100.00
71573;BME280;59408;51.032;9.410;2023-03-16T02:38:26;99465.56;;;-4.70;100.00
71573;BME280;59408;51.032;9.410;2023-03-16T02:40:56;99464.63;;;-4.76;100.00
71573;BME280;59408;51.032;9.410;2023-03-16T02:43:26;99453.84;;;-4.81;100.00
71573;BME280;59408;51.032;9.410;2023-03-16T02:45:55;99451.88;;;-4.86;100.00
71573;BME280;59408;51.032;9.410;2023-03-16T02:48:28;99447.03;;;-4.89;100.00
71573;BME280;59408;51.032;9.410;2023-03-16T02:50:56;99443.44;;;-4.94;100.00
71573;BME280;59408;51.032;9.410;2023-03-16T02:53:23;99446.31;;;-4.96;100.00
71573;BME280;59408;51.032;9.410;2023-03-16T02:55:50;99442.47;;;-5.00;100.00
71573;BME280;59408;51.032;9.410;2023-03-16T02:58:17;99445.38;;;-5.01;100.00
71573;BME280;59408;51.032;9.410;2023-03-16T03:00:43;99433.69;;;-5.00;100.00
71573;BME280;59408;51.032;9.410;2023-03-16T03:03:10;99436.34;;;-5.00;100.00
71573;BME280;59408;51.032;9.410;2023-03-16T03:05:38;99439.81;;;-5.00;100.00
71573;BME280;59408;51.032;9.410;2023-03-16T03:08:05;99437.88;;;-4.93;100.00
71573;BME280;59408;51.032;9.410;2023-03-16T03:10:32;99443.78;;;-4.91;100.00
71573;BME280;59408;51.032;9.410;2023-03-16T03:12:59;99438.81;;;-4.87;100.00
71573;BME280;59408;51.032;9.410;2023-03-16T03:15:25;99441.59;;;-4.82;100.00
71573;BME280;59408;51.032;9.410;2023-03-16T03:17:52;99439.50;;;-4.80;100.00
71573;BME280;59408;51.032;9.410;2023-03-16T03:20:19;99423.31;;;-4.79;100.00
71573;BME280;59408;51.032;9.410;2023-03-16T03:22:48;99420.44;;;-4.77;100.00
71573;BME280;59408;51.032;9.410;2023-03-16T03:25:16;99420.88;;;-4.80;100.00
71573;BME280;59408;51.032;9.410;2023-03-16T03:27:44;99413.38;;;-4.83;100.00
71573;BME280;59408;51.032;9.410;2023-03-16T03:30:17;99416.28;;;-4.85;100.00
71573;BME280;59408;51.032;9.410;2023-03-16T03:32:43;99405.03;;;-4.87;100.00
71573;BME280;59408;51.032;9.410;2023-03-16T03:35:11;99419.97;;;-4.86;100.00
71573;BME280;59408;51.032;9.410;2023-03-16T03:37:38;99422.28;;;-4.78;100.00
71573;BME280;59408;51.032;9.410;2023-03-16T03:40:08;99422.28;;;-4.78;100.00
71573;BME280;59408;51.032;9.410;2023-03-16T03:42:36;99417.66;;;-4.70;100.00
71573;BME280;59408;51.032;9.410;2023-03-16T03:45:03;99410.03;;;-4.67;100.00
71573;BME280;59408;51.032;9.410;2023-03-16T03:47:30;99415.47;;;-4.62;100.00
71573;BME280;59408;51.032;9.410;2023-03-16T03:49:57;99418.25;;;-4.57;100.00
71573;BME280;59408;51.032;9.410;2023-03-16T03:52:23;99418.59;;;-4.53;100.00
71573;BME280;59408;51.032;9.410;2023-03-16T03:54:50;99415.38;;;-4.55;100.00
71573;BME280;59408;51.032;9.410;2023-03-16T03:57:18;99418.59;;;-4.53;100.00
71573;BME280;59408;51.032;9.410;2023-03-16T03:59:47;99420.34;;;-4.59;100.00
71573;BME280;59408;51.032;9.410;2023-03-16T04:02:14;99421.28;;;-4.65;100.00
71573;BME280;59408;51.032;9.410;2023-03-16T04:04:42;99411.09;;;-4.68;100.00
71573;BME280;59408;51.032;9.410;2023-03-16T04:07:09;99414.19;;;-4.71;100.00
71573;BME280;59408;51.032;9.410;2023-03-16T04:09:36;99418.16;;;-4.73;100.00
71573;BME280;59408;51.032;9.410;2023-03-16T04:12:03;99423.69;;;-4.75;100.00
71573;BME280;59408;51.032;9.410;2023-03-16T04:14:32;99420.66;;;-4.79;100.00
71573;BME280;59408;51.032;9.410;2023-03-16T04:16:59;99417.78;;;-4.77;100.00
71573;BME280;59408;51.032;9.410;2023-03-16T04:19:25;99432.34;;;-4.80;100.00
71573;BME280;59408;51.032;9.410;2023-03-16T04:21:52;99421.22;;;-4.88;100.00
71573;BME280;59408;51.032;9.410;2023-03-16T04:24:19;99421.44;;;-4.90;100.00
71573;BME280;59408;51.032;9.410;2023-03-16T04:26:46;99421.44;;;-4.90;100.00
71573;BME280;59408;51.032;9.410;2023-03-16T04:29:13;99421.94;;;-4.93;100.00
71573;BME280;59408;51.032;9.410;2023-03-16T04:31:42;99414.63;;;-4.97;100.00
71573;BME280;59408;51.032;9.410;2023-03-16T04:34:09;99404.44;;;-5.00;100.00
71573;BME280;59408;51.032;9.410;2023-03-16T04:36:36;99408.16;;;-5.01;100.00
71573;BME280;59408;51.032;9.410;2023-03-16T04:39:03;99412.06;;;-5.04;100.00
71573;BME280;59408;51.032;9.410;2023-03-16T04:41:30;99416.81;;;-5.06;100.00
71573;BME280;59408;51.032;9.410;2023-03-16T04:43:56;99410.66;;;-5.06;100.00
71573;BME280;59408;51.032;9.410;2023-03-16T04:46:23;99406.38;;;-5.07;100.00
71573;BME280;59408;51.032;9.410;2023-03-16T04:48:52;99402.91;;;-5.08;100.00
71573;BME280;59408;51.032;9.410;2023-03-16T04:51:18;99395.75;;;-5.07;100.00
71573;BME280;59408;51.032;9.410;2023-03-16T04:53:45;99403.72;;;-5.07;100.00
71573;BME280;59408;51.032;9.410;2023-03-16T04:56:11;99405.94;;;-5.04;100.00
71573;BME280;59408;51.032;9.410;2023-03-16T04:58:38;99405.94;;;-5.04;100.00
71573;BME280;59408;51.032;9.410;2023-03-16T05:01:04;99405.94;;;-5.04;100.00
71573;BME280;59408;51.032;9.410;2023-03-16T05:03:31;99407.19;;;-5.07;100.00
71573;BME280;59408;51.032;9.410;2023-03-16T05:05:59;99414.13;;;-5.06;100.00
71573;BME280;59408;51.032;9.410;2023-03-16T05:08:26;99410.81;;;-5.01;100.00
71573;BME280;59408;51.032;9.410;2023-03-16T05:10:55;99408.72;;;-4.99;100.00
71573;BME280;59408;51.032;9.410;2023-03-16T05:13:22;99404.78;;;-4.97;100.00
71573;BME280;59408;51.032;9.410;2023-03-16T05:15:48;99395.06;;;-4.91;100.00
71573;BME280;59408;51.032;9.410;2023-03-16T05:18:15;99409.00;;;-4.78;100.00
71573;BME280;59408;51.032;9.410;2023-03-16T05:20:42;99410.16;;;-4.73;100.00
71573;BME280;59408;51.032;9.410;2023-03-16T05:23:10;99418.13;;;-4.62;100.00
71573;BME280;59408;51.032;9.410;2023-03-16T05:25:36;99412.81;;;-4.62;100.00
71573;BME280;59408;51.032;9.410;2023-03-16T05:28:03;99406.69;;;-4.62;100.00
71573;BME280;59408;51.032;9.410;2023-03-16T05:30:30;99410.72;;;-4.71;100.00
71573;BME280;59408;51.032;9.410;2023-03-16T05:32:56;99410.84;;;-4.78;100.00
71573;BME280;59408;51.032;9.410;2023-03-16T05:35:23;99409.00;;;-4.78;100.00
71573;BME280;59408;51.032;9.410;2023-03-16T05:37:50;99412.09;;;-4.81;100.00
71573;BME280;59408;51.032;9.410;2023-03-16T05:40:18;99417.34;;;-4.74;100.00
71573;BME280;59408;51.032;9.410;2023-03-16T05:42:46;99417.19;;;-4.79;100.00
71573;BME280;59408;51.032;9.410;2023-03-16T05:45:14;99410.84;;;-4.78;100.00
71573;BME280;59408;51.032;9.410;2023-03-16T05:47:42;99417.56;;;-4.75;100.00
71573;BME280;59408;51.032;9.410;2023-03-16T05:50:10;99420.44;;;-4.77;100.00
71573;BME280;59408;51.032;9.410;2023-03-16T05:52:38;99404.47;;;-4.77;100.00
71573;BME280;59408;51.032;9.410;2023-03-16T05:55:06;99400.31;;;-4.73;100.00
71573;BME280;59408;51.032;9.410;2023-03-16T05:57:34;99403.91;;;-4.67;100.00
71573;BME280;59408;51.032;9.410;2023-03-16T06:00:01;99407.94;;;-4.53;100.00
71573;BME280;59408;51.032;9.410;2023-03-16T06:02:28;99400.09;;;-4.48;100.00
71573;BME280;59408;51.032;9.410;2023-03-16T06:04:55;99411.19;;;-4.40;100.00
71573;BME280;59408;51.032;9.410;2023-03-16T06:07:21;99407.47;;;-4.27;100.00
71573;BME280;59408;51.032;9.410;2023-03-16T06:09:51;99406.78;;;-4.11;100.00
71573;BME280;59408;51.032;9.410;2023-03-16T06:12:18;99415.44;;;-3.92;100.00
71573;BME280;59408;51.032;9.410;2023-03-16T06:14:46;99411.66;;;-3.79;100.00
71573;BME280;59408;51.032;9.410;2023-03-16T06:17:12;99407.22;;;-3.62;100.00
71573;BME280;59408;51.032;9.410;2023-03-16T06:19:39;99403.66;;;-3.39;100.00
71573;BME280;59408;51.032;9.410;2023-03-16T06:22:06;99414.19;;;-3.16;100.00
71573;BME280;59408;51.032;9.410;2023-03-16T06:24:32;99408.41;;;-2.96;100.00
71573;BME280;59408;51.032;9.410;2023-03-16T06:26:59;99399.13;;;-2.77;100.00
71573;BME280;59408;51.032;9.410;2023-03-16T06:29:26;99399.84;;;-2.65;100.00
71573;BME280;59408;51.032;9.410;2023-03-16T06:31:54;99394.41;;;-2.53;100.00
71573;BME280;59408;51.032;9.410;2023-03-16T06:34:20;99398.28;;;-2.44;100.00
71573;BME280;59408;51.032;9.410;2023-03-16T06:36:47;99401.91;;;-2.33;100.00
71573;BME280;59408;51.032;9.410;2023-03-16T06:39:14;99399.84;;;-2.26;100.00
71573;BME280;59408;51.032;9.410;2023-03-16T06:41:40;99396.75;;;-2.18;100.00
71573;BME280;59408;51.032;9.410;2023-03-16T06:44:07;99389.22;;;-2.04;100.00
71573;BME280;59408;51.032;9.410;2023-03-16T06:46:34;99397.41;;;-1.89;100.00
71573;BME280;59408;51.032;9.410;2023-03-16T06:49:02;99409.47;;;-1.65;99.79
71573;BME280;59408;51.032;9.410;2023-03-16T06:51:28;99413.94;;;-1.49;99.32
71573;BME280;59408;51.032;9.410;2023-03-16T06:53:55;99409.75;;;-1.40;99.03
71573;BME280;59408;51.032;9.410;2023-03-16T06:56:22;99409.69;;;-1.18;97.08
71573;BME280;59408;51.032;9.410;2023-03-16T06:58:49;99402.63;;;-1.02;96.23
71573;BME280;59408;51.032;9.410;2023-03-16T07:01:16;99407.09;;;-0.81;94.25
71573;BME280;59408;51.032;9.410;2023-03-16T07:03:43;99402.34;;;-0.74;95.63
71573;BME280;59408;51.032;9.410;2023-03-16T07:06:11;99403.19;;;-0.68;95.89
71573;BME280;59408;51.032;9.410;2023-03-16T07:08:37;99408.88;;;-0.59;95.17
71573;BME280;59408;51.032;9.410;2023-03-16T07:11:04;99411.13;;;-0.46;93.87
71573;BME280;59408;51.032;9.410;2023-03-16T07:13:31;99415.69;;;-0.42;93.03
71573;BME280;59408;51.032;9.410;2023-03-16T07:15:58;99407.72;;;-0.37;94.42
71573;BME280;59408;51.032;9.410;2023-03-16T07:18:24;99410.97;;;-0.30;94.00
71573;BME280;59408;51.032;9.410;2023-03-16T07:20:51;99405.63;;;-0.25;93.40
71573;BME280;59408;51.032;9.410;2023-03-16T07:23:19;99418.78;;;-0.18;93.84
71573;BME280;59408;51.032;9.410;2023-03-16T07:25:46;99418.03;;;-0.08;92.11
71573;BME280;59408;51.032;9.410;2023-03-16T07:28:13;99412.53;;;0.08;89.84
71573;BME280;59408;51.032;9.410;2023-03-16T07:30:39;99412.28;;;0.20;90.50
71573;BME280;59408;51.032;9.410;2023-03-16T07:33:18;99417.19;;;0.33;87.77
71573;BME280;59408;51.032;9.410;2023-03-16T07:35:45;99418.03;;;0.44;87.50
71573;BME280;59408;51.032;9.410;2023-03-16T07:38:11;99408.66;;;0.52;87.91
71573;BME280;59408;51.032;9.410;2023-03-16T07:40:39;99412.19;;;0.62;86.41
71573;BME280;59408;51.032;9.410;2023-03-16T07:43:06;99411.13;;;0.73;85.06
71573;BME280;59408;51.032;9.410;2023-03-16T07:45:33;99414.13;;;0.87;85.20
71573;BME280;59408;51.032;9.410;2023-03-16T07:47:59;99411.47;;;1.12;84.69
71573;BME280;59408;51.032;9.410;2023-03-16T07:50:26;99423.56;;;1.35;82.22
71573;BME280;59408;51.032;9.410;2023-03-16T07:52:53;99414.97;;;1.53;81.94
71573;BME280;59408;51.032;9.410;2023-03-16T07:55:20;99422.19;;;1.68;79.92
71573;BME280;59408;51.032;9.410;2023-03-16T07:57:47;99411.72;;;1.82;79.71
71573;BME280;59408;51.032;9.410;2023-03-16T08:00:15;99413.03;;;1.84;78.44
71573;BME280;59408;51.032;9.410;2023-03-16T08:02:42;99418.66;;;1.93;78.36
71573;BME280;59408;51.032;9.410;2023-03-16T08:05:09;99424.53;;;2.10;77.31
71573;BME280;59408;51.032;9.410;2023-03-16T08:07:35;99411.56;;;2.22;77.95
71573;BME280;59408;51.032;9.410;2023-03-16T08:10:03;99408.84;;;2.32;77.22
71573;BME280;59408;51.032;9.410;2023-03-16T08:12:30;99416.34;;;2.41;75.75
71573;BME280;59408;51.032;9.410;2023-03-16T08:14:58;99407.16;;;2.52;74.74
71573;BME280;59408;51.032;9.410;2023-03-16T08:17:24;99402.81;;;2.56;74.70
71573;BME280;59408;51.032;9.410;2023-03-16T08:19:51;99394.19;;;2.59;73.18
71573;BME280;59408;51.032;9.410;2023-03-16T08:22:17;99393.28;;;2.79;73.20
71573;BME280;59408;51.032;9.410;2023-03-16T08:24:44;99387.88;;;2.79;73.00
71573;BME280;59408;51.032;9.410;2023-03-16T08:27:11;99395.31;;;2.97;73.08
71573;BME280;59408;51.032;9.410;2023-03-16T08:29:37;99394.09;;;3.13;71.10
71573;BME280;59408;51.032;9.410;2023-03-16T08:32:06;99399.94;;;3.25;69.66
71573;BME280;59408;51.032;9.410;2023-03-16T08:34:32;99393.63;;;3.40;69.41
71573;BME280;59408;51.032;9.410;2023-03-16T08:36:59;99392.69;;;3.55;68.45
71573;BME280;59408;51.032;9.410;2023-03-16T08:39:25;99406.59;;;3.67;67.13
71573;BME280;59408;51.032;9.410;2023-03-16T08:41:52;99397.38;;;3.73;67.67
71573;BME280;59408;51.032;9.410;2023-03-16T08:44:18;99406.78;;;3.75;65.75
71573;BME280;59408;51.032;9.410;2023-03-16T08:46:45;99401.81;;;3.87;68.25
71573;BME280;59408;51.032;9.410;2023-03-16T08:49:13;99414.50;;;4.11;66.96
71573;BME280;59408;51.032;9.410;2023-03-16T08:51:40;99409.81;;;4.21;65.77
71573;BME280;59408;51.032;9.410;2023-03-16T08:54:08;99420.31;;;4.23;64.45
71573;BME280;59408;51.032;9.410;2023-03-16T08:56:35;99405.94;;;4.04;63.72
71573;BME280;59408;51.032;9.410;2023-03-16T08:59:01;99405.31;;;4.12;64.09
71573;BME280;59408;51.032;9.410;2023-03-16T09:01:28;99405.28;;;4.17;63.61
71573;BME280;59408;51.032;9.410;2023-03-16T09:03:55;99409.59;;;4.18;63.58
71573;BME280;59408;51.032;9.410;2023-03-16T09:06:23;99410.88;;;4.20;63.56
71573;BME280;59408;51.032;9.410;2023-03-16T09:08:49;99410.25;;;4.52;63.85
71573;BME280;59408;51.032;9.410;2023-03-16T09:11:17;99404.59;;;4.49;62.44
71573;BME280;59408;51.032;9.410;2023-03-16T09:13:44;99410.44;;;4.56;62.62
71573;BME280;59408;51.032;9.410;2023-03-16T09:16:13;99407.34;;;4.68;62.99
71573;BME280;59408;51.032;9.410;2023-03-16T09:18:40;99400.63;;;4.84;63.28
71573;BME280;59408;51.032;9.410;2023-03-16T09:21:09;99396.84;;;5.04;62.03
71573;BME280;59408;51.032;9.410;2023-03-16T09:23:38;99401.00;;;5.15;62.41
71573;BME280;59408;51.032;9.410;2023-03-16T09:26:05;99394.50;;;5.48;62.46
71573;BME280;59408;51.032;9.410;2023-03-16T09:28:32;99397.06;;;5.58;61.74
71573;BME280;59408;51.032;9.410;2023-03-16T09:30:59;99392.41;;;5.91;61.22
71573;BME280;59408;51.032;9.410;2023-03-16T09:33:26;99385.50;;;6.12;58.87
71573;BME280;59408;51.032;9.410;2023-03-16T09:35:53;99379.69;;;6.33;59.25
71573;BME280;59408;51.032;9.410;2023-03-16T09:38:20;99382.50;;;6.28;58.29
71573;BME280;59408;51.032;9.410;2023-03-16T09:40:56;99392.34;;;6.10;58.75
71573;BME280;59408;51.032;9.410;2023-03-16T09:43:41;99389.25;;;6.66;58.57
71573;BME280;59408;51.032;9.410;2023-03-16T09:46:13;99382.50;;;6.77;55.99
71573;BME280;59408;51.032;9.410;2023-03-16T09:48:41;99386.28;;;6.54;57.41
71573;BME280;59408;51.032;9.410;2023-03-16T09:51:16;99390.91;;;6.40;56.10
71573;BME280;59408;51.032;9.410;2023-03-16T09:53:45;99392.09;;;6.61;57.57
71573;BME280;59408;51.032;9.410;2023-03-16T09:56:19;99386.03;;;6.78;57.32
71573;BME280;59408;51.032;9.410;2023-03-16T09:58:47;99388.78;;;6.64;55.04
71573;BME280;59408;51.032;9.410;2023-03-16T10:01:21;99392.19;;;6.56;55.23
71573;BME280;59408;51.032;9.410;2023-03-16T10:03:58;99393.50;;;6.95;55.87
71573;BME280;59408;51.032;9.410;2023-03-16T10:06:27;99384.06;;;6.92;54.23
71573;BME280;59408;51.032;9.410;2023-03-16T10:09:01;99395.81;;;7.23;54.00
71573;BME280;59408;51.032;9.410;2023-03-16T10:11:34;99386.97;;;6.96;55.51
71573;BME280;59408;51.032;9.410;2023-03-16T10:14:09;99389.50;;;7.28;53.46
71573;BME280;59408;51.032;9.410;2023-03-16T10:16:41;99392.47;;;7.04;54.10
71573;BME280;59408;51.032;9.410;2023-03-16T10:19:13;99395.63;;;7.20;53.59
71573;BME280;59408;51.032;9.410;2023-03-16T10:21:42;99384.88;;;7.51;52.03
71573;BME280;59408;51.032;9.410;2023-03-16T10:24:15;99382.66;;;7.53;51.10
71573;BME280;59408;51.032;9.410;2023-03-16T10:26:53;99385.25;;;7.36;51.55
71573;BME280;59408;51.032;9.410;2023-03-16T10:29:21;99374.63;;;7.48;53.25
71573;BME280;59408;51.032;9.410;2023-03-16T10:31:48;99385.97;;;7.72;51.92
71573;BME280;59408;51.032;9.410;2023-03-16T10:34:14;99370.84;;;7.80;52.10
71573;BME280;59408;51.032;9.410;2023-03-16T10:36:43;99375.28;;;8.15;53.01
71573;BME280;59408;51.032;9.410;2023-03-16T10:39:12;99373.91;;;8.26;49.91
71573;BME280;59408;51.032;9.410;2023-03-16T10:41:41;99371.53;;;7.94;51.31
71573;BME280;59408;51.032;9.410;2023-03-16T10:44:12;99375.22;;;7.98;53.27
71573;BME280;59408;51.032;9.410;2023-03-16T10:46:42;99371.34;;;8.30;51.37
71573;BME280;59408;51.032;9.410;2023-03-16T10:49:23;99366.31;;;8.71;49.87
71573;BME280;59408;51.032;9.410;2023-03-16T10:51:52;99363.28;;;9.42;50.49
71573;BME280;59408;51.032;9.410;2023-03-16T10:54:24;99370.22;;;9.86;50.38
71573;BME280;59408;51.032;9.410;2023-03-16T10:56:52;99358.03;;;9.83;47.28
71573;BME280;59408;51.032;9.410;2023-03-16T10:59:28;99359.50;;;9.81;47.04
71573;BME280;59408;51.032;9.410;2023-03-16T11:01:55;99355.00;;;9.85;46.95
71573;BME280;59408;51.032;9.410;2023-03-16T11:04:21;99358.28;;;9.61;47.24
71573;BME280;59408;51.032;9.410;2023-03-16T11:06:51;99358.13;;;9.58;47.40
71573;BME280;59408;51.032;9.410;2023-03-16T11:09:21;99349.72;;;9.88;49.79
71573;BME280;59408;51.032;9.410;2023-03-16T11:11:49;99358.00;;;9.54;46.37
71573;BME280;59408;51.032;9.410;2023-03-16T11:14:20;99355.28;;;9.02;48.66
71573;BME280;59408;51.032;9.410;2023-03-16T11:16:52;99341.69;;;8.94;45.41
71573;BME280;59408;51.032;9.410;2023-03-16T11:19:23;99348.09;;;8.98;46.14
71573;BME280;59408;51.032;9.410;2023-03-16T11:21:55;99346.31;;;9.45;46.23
71573;BME280;59408;51.032;9.410;2023-03-16T11:24:29;99344.53;;;9.49;47.23
71573;BME280;59408;51.032;9.410;2023-03-16T11:27:00;99343.22;;;9.64;45.18
71573;BME280;59408;51.032;9.410;2023-03-16T11:29:42;99341.31;;;10.02;44.54
71573;BME280;59408;51.032;9.410;2023-03-16T11:32:18;99335.38;;;10.30;43.61
71573;BME280;59408;51.032;9.410;2023-03-16T11:34:45;99342.03;;;10.49;42.88
71573;BME280;59408;51.032;9.410;2023-03-16T11:37:21;99341.69;;;10.21;41.54
71573;BME280;59408;51.032;9.410;2023-03-16T11:39:59;99320.22;;;10.70;43.17
71573;BME280;59408;51.032;9.410;2023-03-16T11:42:29;99311.19;;;10.78;41.32
71573;BME280;59408;51.032;9.410;2023-03-16T11:45:05;99306.34;;;10.34;41.57
71573;BME280;59408;51.032;9.410;2023-03-16T11:47:52;99312.41;;;9.80;41.75
71573;BME280;59408;51.032;9.410;2023-03-16T11:50:26;99310.19;;;9.74;44.35
71573;BME280;59408;51.032;9.410;2023-03-16T11:53:00;99332.84;;;9.40;41.55
71573;BME280;59408;51.032;9.410;2023-03-16T11:55:34;99321.34;;;9.34;42.77
71573;BME280;59408;51.032;9.410;2023-03-16T11:58:13;99324.88;;;9.35;41.96
71573;BME280;59408;51.032;9.410;2023-03-16T12:00:50;99318.78;;;9.03;41.57
71573;BME280;59408;51.032;9.410;2023-03-16T12:03:47;99313.69;;;9.10;40.75
71573;BME280;59408;51.032;9.410;2023-03-16T12:06:27;99316.06;;;9.38;41.79
71573;BME280;59408;51.032;9.410;2023-03-16T12:11:46;99306.16;;;9.25;41.91
71573;BME280;59408;51.032;9.410;2023-03-16T12:14:22;99295.41;;;9.02;42.06
71573;BME280;59408;51.032;9.410;2023-03-16T12:16:53;99289.13;;;9.45;44.02
71573;BME280;59408;51.032;9.410;2023-03-16T12:19:27;99275.94;;;9.64;40.87
71573;BME280;59408;51.032;9.410;2023-03-16T12:22:02;99269.78;;;9.76;42.46
71573;BME280;59408;51.032;9.410;2023-03-16T12:24:36;99269.03;;;9.67;42.36
71573;BME280;59408;51.032;9.410;2023-03-16T12:27:10;99259.91;;;10.01;40.87
71573;BME280;59408;51.032;9.410;2023-03-16T12:29:42;99254.22;;;10.35;42.34
71573;BME280;59408;51.032;9.410;2023-03-16T12:32:16;99248.09;;;9.88;41.95
71573;BME280;59408;51.032;9.410;2023-03-16T12:34:49;99239.91;;;10.59;41.95
71573;BME280;59408;51.032;9.410;2023-03-16T12:37:24;99251.81;;;10.96;41.58
71573;BME280;59408;51.032;9.410;2023-03-16T12:39:59;99254.25;;;11.55;41.52
71573;BME280;59408;51.032;9.410;2023-03-16T12:42:38;99252.44;;;10.81;41.51
71573;BME280;59408;51.032;9.410;2023-03-16T12:45:11;99253.06;;;10.98;40.64
71573;BME280;59408;51.032;9.410;2023-03-16T12:47:48;99250.75;;;11.21;43.39
71573;BME280;59408;51.032;9.410;2023-03-16T12:50:18;99248.09;;;10.59;40.16
71573;BME280;59408;51.032;9.410;2023-03-16T12:52:47;99232.47;;;10.27;41.43
71573;BME280;59408;51.032;9.410;2023-03-16T12:55:16;99222.94;;;10.12;41.53
71573;BME280;59408;51.032;9.410;2023-03-16T12:57:44;99225.00;;;10.77;42.29
71573;BME280;59408;51.032;9.410;2023-03-16T13:00:14;99220.03;;;10.79;41.56
71573;BME280;59408;51.032;9.410;2023-03-16T13:02:43;99225.41;;;11.57;40.72
71573;BME280;59408;51.032;9.410;2023-03-16T13:05:13;99219.00;;;11.17;40.75
71573;BME280;59408;51.032;9.410;2023-03-16T13:07:47;99205.81;;;11.19;39.27
71573;BME280;59408;51.032;9.410;2023-03-16T13:10:16;99209.25;;;11.40;39.79